<?xml version="1.0" encoding="utf-8"?>
<gpx xmlns:xsi="http://www.w3.org/2001/XMLSchema-instance" xmlns:xsd="http://www.w3.org/2001/XMLSchema" version="1.1" creator="Shapelink.com" xmlns="http://www.topografix.com/GPX/1/1" xmlns:gpxtpx="http://www.garmin.com/xmlschemas/TrackPointExtension/v1">
  <metadata>
    <name>Løping 4.01 km, 2012-05-27</name>
    <desc></desc>
    <author><name>Mikael Blom</name></author> 
    <time>2012-05-27T06:25:15Z</time>
  </metadata>
  <trk>
    <name>Løping 4.01 km, 2012-05-27</name>
    <trkseg>
      <trkpt lat="59.9787889" lon="17.7393108">
        <ele>43.3966</ele>
        <time>2012-05-27T06:25:15Z</time>
      </trkpt>
      <trkpt lat="59.9787579" lon="17.739322">
        <ele>44.358</ele>
        <time>2012-05-27T06:25:16Z</time>
      </trkpt>
      <trkpt lat="59.9785888" lon="17.739431">
        <ele>42.916</ele>
        <time>2012-05-27T06:25:22Z</time>
      </trkpt>
      <trkpt lat="59.9784616" lon="17.7394217">
        <ele>41.474</ele>
        <time>2012-05-27T06:25:26Z</time>
      </trkpt>
      <trkpt lat="59.978349" lon="17.7394351">
        <ele>42.916</ele>
        <time>2012-05-27T06:25:30Z</time>
      </trkpt>
      <trkpt lat="59.97823" lon="17.7394776">
        <ele>43.8773</ele>
        <time>2012-05-27T06:25:34Z</time>
      </trkpt>
      <trkpt lat="59.9780865" lon="17.7395402">
        <ele>41.474</ele>
        <time>2012-05-27T06:25:39Z</time>
      </trkpt>
      <trkpt lat="59.9780384" lon="17.7395445">
        <ele>41.474</ele>
        <time>2012-05-27T06:25:41Z</time>
      </trkpt>
      <trkpt lat="59.9779633" lon="17.7394937">
        <ele>40.5128</ele>
        <time>2012-05-27T06:25:44Z</time>
      </trkpt>
      <trkpt lat="59.9778751" lon="17.7393981">
        <ele>42.916</ele>
        <time>2012-05-27T06:25:48Z</time>
      </trkpt>
      <trkpt lat="59.9777727" lon="17.7393646">
        <ele>43.3966</ele>
        <time>2012-05-27T06:25:53Z</time>
      </trkpt>
      <trkpt lat="59.9776913" lon="17.7392848">
        <ele>45.7999</ele>
        <time>2012-05-27T06:25:56Z</time>
      </trkpt>
      <trkpt lat="59.9775752" lon="17.7392138">
        <ele>46.7612</ele>
        <time>2012-05-27T06:26:01Z</time>
      </trkpt>
      <trkpt lat="59.9774787" lon="17.7392388">
        <ele>46.7612</ele>
        <time>2012-05-27T06:26:05Z</time>
      </trkpt>
      <trkpt lat="59.9773448" lon="17.7392817">
        <ele>44.8386</ele>
        <time>2012-05-27T06:26:10Z</time>
      </trkpt>
      <trkpt lat="59.9772663" lon="17.7393165">
        <ele>44.358</ele>
        <time>2012-05-27T06:26:14Z</time>
      </trkpt>
      <trkpt lat="59.977184" lon="17.7393681">
        <ele>43.3966</ele>
        <time>2012-05-27T06:26:17Z</time>
      </trkpt>
      <trkpt lat="59.9770848" lon="17.7394573">
        <ele>44.358</ele>
        <time>2012-05-27T06:26:21Z</time>
      </trkpt>
      <trkpt lat="59.976985" lon="17.7395321">
        <ele>43.8773</ele>
        <time>2012-05-27T06:26:25Z</time>
      </trkpt>
      <trkpt lat="59.9768807" lon="17.7395644">
        <ele>41.9547</ele>
        <time>2012-05-27T06:26:29Z</time>
      </trkpt>
      <trkpt lat="59.9768164" lon="17.7395821">
        <ele>40.5128</ele>
        <time>2012-05-27T06:26:31Z</time>
      </trkpt>
      <trkpt lat="59.9766064" lon="17.7396362">
        <ele>31.3801</ele>
        <time>2012-05-27T06:26:38Z</time>
      </trkpt>
      <trkpt lat="59.9765123" lon="17.7397361">
        <ele>28.4962</ele>
        <time>2012-05-27T06:26:42Z</time>
      </trkpt>
      <trkpt lat="59.9764289" lon="17.739849">
        <ele>28.4962</ele>
        <time>2012-05-27T06:26:46Z</time>
      </trkpt>
      <trkpt lat="59.9763292" lon="17.7399045">
        <ele>28.9769</ele>
        <time>2012-05-27T06:26:50Z</time>
      </trkpt>
      <trkpt lat="59.9762774" lon="17.7399173">
        <ele>28.4962</ele>
        <time>2012-05-27T06:26:52Z</time>
      </trkpt>
      <trkpt lat="59.97614" lon="17.739812">
        <ele>27.5349</ele>
        <time>2012-05-27T06:26:58Z</time>
      </trkpt>
      <trkpt lat="59.9761213" lon="17.7397932">
        <ele>27.0543</ele>
        <time>2012-05-27T06:26:59Z</time>
      </trkpt>
      <trkpt lat="59.9760024" lon="17.7396382">
        <ele>26.5736</ele>
        <time>2012-05-27T06:27:04Z</time>
      </trkpt>
      <trkpt lat="59.9759781" lon="17.7396064">
        <ele>26.5736</ele>
        <time>2012-05-27T06:27:05Z</time>
      </trkpt>
      <trkpt lat="59.9758845" lon="17.7394209">
        <ele>25.1317</ele>
        <time>2012-05-27T06:27:10Z</time>
      </trkpt>
      <trkpt lat="59.9757617" lon="17.7391734">
        <ele>24.651</ele>
        <time>2012-05-27T06:27:17Z</time>
      </trkpt>
      <trkpt lat="59.9756489" lon="17.7389544">
        <ele>25.6123</ele>
        <time>2012-05-27T06:27:23Z</time>
      </trkpt>
      <trkpt lat="59.975552" lon="17.7387605">
        <ele>24.1703</ele>
        <time>2012-05-27T06:27:29Z</time>
      </trkpt>
      <trkpt lat="59.9754406" lon="17.7385408">
        <ele>25.1317</ele>
        <time>2012-05-27T06:27:35Z</time>
      </trkpt>
      <trkpt lat="59.9753368" lon="17.7383224">
        <ele>24.1703</ele>
        <time>2012-05-27T06:27:41Z</time>
      </trkpt>
      <trkpt lat="59.9752329" lon="17.738109">
        <ele>23.6896</ele>
        <time>2012-05-27T06:27:47Z</time>
      </trkpt>
      <trkpt lat="59.9751387" lon="17.7379504">
        <ele>24.1703</ele>
        <time>2012-05-27T06:27:52Z</time>
      </trkpt>
      <trkpt lat="59.9750529" lon="17.7377885">
        <ele>22.2476</ele>
        <time>2012-05-27T06:27:57Z</time>
      </trkpt>
      <trkpt lat="59.9749433" lon="17.7375961">
        <ele>21.767</ele>
        <time>2012-05-27T06:28:03Z</time>
      </trkpt>
      <trkpt lat="59.9748386" lon="17.7373827">
        <ele>21.767</ele>
        <time>2012-05-27T06:28:09Z</time>
      </trkpt>
      <trkpt lat="59.9747354" lon="17.7371564">
        <ele>21.767</ele>
        <time>2012-05-27T06:28:15Z</time>
      </trkpt>
      <trkpt lat="59.974665" lon="17.7369467">
        <ele>21.767</ele>
        <time>2012-05-27T06:28:20Z</time>
      </trkpt>
      <trkpt lat="59.9745859" lon="17.7366892">
        <ele>21.767</ele>
        <time>2012-05-27T06:28:26Z</time>
      </trkpt>
      <trkpt lat="59.9745219" lon="17.7364709">
        <ele>22.2476</ele>
        <time>2012-05-27T06:28:31Z</time>
      </trkpt>
      <trkpt lat="59.9744575" lon="17.73621">
        <ele>22.2476</ele>
        <time>2012-05-27T06:28:37Z</time>
      </trkpt>
      <trkpt lat="59.9743982" lon="17.735928">
        <ele>22.7283</ele>
        <time>2012-05-27T06:28:43Z</time>
      </trkpt>
      <trkpt lat="59.9743621" lon="17.7357289">
        <ele>23.209</ele>
        <time>2012-05-27T06:28:47Z</time>
      </trkpt>
      <trkpt lat="59.9743171" lon="17.7354361">
        <ele>22.7283</ele>
        <time>2012-05-27T06:28:53Z</time>
      </trkpt>
      <trkpt lat="59.97429" lon="17.7351439">
        <ele>22.7283</ele>
        <time>2012-05-27T06:28:59Z</time>
      </trkpt>
      <trkpt lat="59.974278" lon="17.7349151">
        <ele>22.7283</ele>
        <time>2012-05-27T06:29:04Z</time>
      </trkpt>
      <trkpt lat="59.9742692" lon="17.7346803">
        <ele>22.7283</ele>
        <time>2012-05-27T06:29:09Z</time>
      </trkpt>
      <trkpt lat="59.9742647" lon="17.7344327">
        <ele>23.6896</ele>
        <time>2012-05-27T06:29:14Z</time>
      </trkpt>
      <trkpt lat="59.9742764" lon="17.7340771">
        <ele>26.0929</ele>
        <time>2012-05-27T06:29:21Z</time>
      </trkpt>
      <trkpt lat="59.9742881" lon="17.7337836">
        <ele>27.0543</ele>
        <time>2012-05-27T06:29:27Z</time>
      </trkpt>
      <trkpt lat="59.9743114" lon="17.7335474">
        <ele>27.0543</ele>
        <time>2012-05-27T06:29:32Z</time>
      </trkpt>
      <trkpt lat="59.9743285" lon="17.7332009">
        <ele>27.0543</ele>
        <time>2012-05-27T06:29:39Z</time>
      </trkpt>
      <trkpt lat="59.9743423" lon="17.7330065">
        <ele>27.5349</ele>
        <time>2012-05-27T06:29:43Z</time>
      </trkpt>
      <trkpt lat="59.9743404" lon="17.7327672">
        <ele>28.0155</ele>
        <time>2012-05-27T06:29:48Z</time>
      </trkpt>
      <trkpt lat="59.9743406" lon="17.7325109">
        <ele>28.0155</ele>
        <time>2012-05-27T06:29:53Z</time>
      </trkpt>
      <trkpt lat="59.9743539" lon="17.7322161">
        <ele>27.5349</ele>
        <time>2012-05-27T06:29:59Z</time>
      </trkpt>
      <trkpt lat="59.9743508" lon="17.7321229">
        <ele>27.5349</ele>
        <time>2012-05-27T06:30:01Z</time>
      </trkpt>
      <trkpt lat="59.974366" lon="17.7319395">
        <ele>28.4962</ele>
        <time>2012-05-27T06:30:05Z</time>
      </trkpt>
      <trkpt lat="59.9743707" lon="17.731681">
        <ele>28.9769</ele>
        <time>2012-05-27T06:30:10Z</time>
      </trkpt>
      <trkpt lat="59.9743454" lon="17.7314025">
        <ele>29.4575</ele>
        <time>2012-05-27T06:30:15Z</time>
      </trkpt>
      <trkpt lat="59.974345" lon="17.7311868">
        <ele>29.4575</ele>
        <time>2012-05-27T06:30:19Z</time>
      </trkpt>
      <trkpt lat="59.9743535" lon="17.7309188">
        <ele>29.4575</ele>
        <time>2012-05-27T06:30:24Z</time>
      </trkpt>
      <trkpt lat="59.974371" lon="17.7306546">
        <ele>29.4575</ele>
        <time>2012-05-27T06:30:29Z</time>
      </trkpt>
      <trkpt lat="59.9744004" lon="17.7303004">
        <ele>28.9769</ele>
        <time>2012-05-27T06:30:36Z</time>
      </trkpt>
      <trkpt lat="59.9744149" lon="17.7300503">
        <ele>28.9769</ele>
        <time>2012-05-27T06:30:41Z</time>
      </trkpt>
      <trkpt lat="59.9744383" lon="17.7296958">
        <ele>27.5349</ele>
        <time>2012-05-27T06:30:48Z</time>
      </trkpt>
      <trkpt lat="59.9744681" lon="17.7294453">
        <ele>27.0543</ele>
        <time>2012-05-27T06:30:53Z</time>
      </trkpt>
      <trkpt lat="59.974468" lon="17.7291688">
        <ele>26.5736</ele>
        <time>2012-05-27T06:30:58Z</time>
      </trkpt>
      <trkpt lat="59.9744662" lon="17.7291147">
        <ele>26.5736</ele>
        <time>2012-05-27T06:30:59Z</time>
      </trkpt>
      <trkpt lat="59.9744707" lon="17.7288589">
        <ele>27.0543</ele>
        <time>2012-05-27T06:31:04Z</time>
      </trkpt>
      <trkpt lat="59.974449" lon="17.7285622">
        <ele>28.0155</ele>
        <time>2012-05-27T06:31:10Z</time>
      </trkpt>
      <trkpt lat="59.9744365" lon="17.7283205">
        <ele>28.4962</ele>
        <time>2012-05-27T06:31:15Z</time>
      </trkpt>
      <trkpt lat="59.9744242" lon="17.7280052">
        <ele>29.4575</ele>
        <time>2012-05-27T06:31:21Z</time>
      </trkpt>
      <trkpt lat="59.9744292" lon="17.7278141">
        <ele>29.4575</ele>
        <time>2012-05-27T06:31:25Z</time>
      </trkpt>
      <trkpt lat="59.9744061" lon="17.7275556">
        <ele>31.3801</ele>
        <time>2012-05-27T06:31:30Z</time>
      </trkpt>
      <trkpt lat="59.9743977" lon="17.7274067">
        <ele>31.8607</ele>
        <time>2012-05-27T06:31:33Z</time>
      </trkpt>
      <trkpt lat="59.9743948" lon="17.7271058">
        <ele>32.8223</ele>
        <time>2012-05-27T06:31:39Z</time>
      </trkpt>
      <trkpt lat="59.9743973" lon="17.7269646">
        <ele>32.8223</ele>
        <time>2012-05-27T06:31:42Z</time>
      </trkpt>
      <trkpt lat="59.9743883" lon="17.7267616">
        <ele>33.3029</ele>
        <time>2012-05-27T06:31:46Z</time>
      </trkpt>
      <trkpt lat="59.97438" lon="17.7265144">
        <ele>33.3029</ele>
        <time>2012-05-27T06:31:51Z</time>
      </trkpt>
      <trkpt lat="59.9743802" lon="17.7262755">
        <ele>32.8223</ele>
        <time>2012-05-27T06:31:56Z</time>
      </trkpt>
      <trkpt lat="59.974365" lon="17.7260522">
        <ele>32.8223</ele>
        <time>2012-05-27T06:32:01Z</time>
      </trkpt>
      <trkpt lat="59.9743443" lon="17.7257595">
        <ele>32.3416</ele>
        <time>2012-05-27T06:32:07Z</time>
      </trkpt>
      <trkpt lat="59.9743159" lon="17.72545">
        <ele>31.3801</ele>
        <time>2012-05-27T06:32:13Z</time>
      </trkpt>
      <trkpt lat="59.9743165" lon="17.7254046">
        <ele>31.3801</ele>
        <time>2012-05-27T06:32:14Z</time>
      </trkpt>
      <trkpt lat="59.9742741" lon="17.7251073">
        <ele>31.8607</ele>
        <time>2012-05-27T06:32:20Z</time>
      </trkpt>
      <trkpt lat="59.9742243" lon="17.724808">
        <ele>31.8607</ele>
        <time>2012-05-27T06:32:26Z</time>
      </trkpt>
      <trkpt lat="59.9741989" lon="17.7246184">
        <ele>31.3801</ele>
        <time>2012-05-27T06:32:30Z</time>
      </trkpt>
      <trkpt lat="59.974144" lon="17.724286">
        <ele>31.3801</ele>
        <time>2012-05-27T06:32:37Z</time>
      </trkpt>
      <trkpt lat="59.9741144" lon="17.7241018">
        <ele>31.3801</ele>
        <time>2012-05-27T06:32:41Z</time>
      </trkpt>
      <trkpt lat="59.9740819" lon="17.7238285">
        <ele>30.8995</ele>
        <time>2012-05-27T06:32:47Z</time>
      </trkpt>
      <trkpt lat="59.9740766" lon="17.7237358">
        <ele>30.8995</ele>
        <time>2012-05-27T06:32:49Z</time>
      </trkpt>
      <trkpt lat="59.9740523" lon="17.7235491">
        <ele>31.8607</ele>
        <time>2012-05-27T06:32:53Z</time>
      </trkpt>
      <trkpt lat="59.9739973" lon="17.7232629">
        <ele>31.8607</ele>
        <time>2012-05-27T06:32:59Z</time>
      </trkpt>
      <trkpt lat="59.9739435" lon="17.7230718">
        <ele>31.8607</ele>
        <time>2012-05-27T06:33:03Z</time>
      </trkpt>
      <trkpt lat="59.9738816" lon="17.7228089">
        <ele>31.8607</ele>
        <time>2012-05-27T06:33:09Z</time>
      </trkpt>
      <trkpt lat="59.9738159" lon="17.7225334">
        <ele>30.4188</ele>
        <time>2012-05-27T06:33:15Z</time>
      </trkpt>
      <trkpt lat="59.9737441" lon="17.722276">
        <ele>28.9769</ele>
        <time>2012-05-27T06:33:21Z</time>
      </trkpt>
      <trkpt lat="59.9736739" lon="17.7220754">
        <ele>28.9769</ele>
        <time>2012-05-27T06:33:26Z</time>
      </trkpt>
      <trkpt lat="59.9735773" lon="17.7218472">
        <ele>29.4575</ele>
        <time>2012-05-27T06:33:32Z</time>
      </trkpt>
      <trkpt lat="59.9734834" lon="17.7216311">
        <ele>29.4575</ele>
        <time>2012-05-27T06:33:38Z</time>
      </trkpt>
      <trkpt lat="59.9733585" lon="17.7214018">
        <ele>29.4575</ele>
        <time>2012-05-27T06:33:45Z</time>
      </trkpt>
      <trkpt lat="59.9732738" lon="17.7212306">
        <ele>28.4962</ele>
        <time>2012-05-27T06:33:50Z</time>
      </trkpt>
      <trkpt lat="59.9731799" lon="17.7210768">
        <ele>28.4962</ele>
        <time>2012-05-27T06:33:55Z</time>
      </trkpt>
      <trkpt lat="59.9730588" lon="17.7209076">
        <ele>28.9769</ele>
        <time>2012-05-27T06:34:01Z</time>
      </trkpt>
      <trkpt lat="59.9729493" lon="17.720776">
        <ele>28.4962</ele>
        <time>2012-05-27T06:34:06Z</time>
      </trkpt>
      <trkpt lat="59.9728379" lon="17.7206514">
        <ele>28.0155</ele>
        <time>2012-05-27T06:34:11Z</time>
      </trkpt>
      <trkpt lat="59.9727007" lon="17.720505">
        <ele>28.4962</ele>
        <time>2012-05-27T06:34:17Z</time>
      </trkpt>
      <trkpt lat="59.9725381" lon="17.7203629">
        <ele>28.4962</ele>
        <time>2012-05-27T06:34:24Z</time>
      </trkpt>
      <trkpt lat="59.9724251" lon="17.7202542">
        <ele>28.9769</ele>
        <time>2012-05-27T06:34:29Z</time>
      </trkpt>
      <trkpt lat="59.9722725" lon="17.7201238">
        <ele>28.4962</ele>
        <time>2012-05-27T06:34:36Z</time>
      </trkpt>
      <trkpt lat="59.9721389" lon="17.7200066">
        <ele>28.4962</ele>
        <time>2012-05-27T06:34:42Z</time>
      </trkpt>
      <trkpt lat="59.972003" lon="17.7198921">
        <ele>28.0155</ele>
        <time>2012-05-27T06:34:48Z</time>
      </trkpt>
      <trkpt lat="59.9718949" lon="17.7197883">
        <ele>27.0543</ele>
        <time>2012-05-27T06:34:53Z</time>
      </trkpt>
      <trkpt lat="59.9717894" lon="17.719692">
        <ele>26.0929</ele>
        <time>2012-05-27T06:34:58Z</time>
      </trkpt>
      <trkpt lat="59.9716658" lon="17.719558">
        <ele>25.1317</ele>
        <time>2012-05-27T06:35:04Z</time>
      </trkpt>
      <trkpt lat="59.9715544" lon="17.7194461">
        <ele>26.0929</ele>
        <time>2012-05-27T06:35:09Z</time>
      </trkpt>
      <trkpt lat="59.9714446" lon="17.7193232">
        <ele>27.5349</ele>
        <time>2012-05-27T06:35:14Z</time>
      </trkpt>
      <trkpt lat="59.9713792" lon="17.7192551">
        <ele>27.0543</ele>
        <time>2012-05-27T06:35:17Z</time>
      </trkpt>
      <trkpt lat="59.9712031" lon="17.7190892">
        <ele>27.5349</ele>
        <time>2012-05-27T06:35:25Z</time>
      </trkpt>
      <trkpt lat="59.9710891" lon="17.718996">
        <ele>27.5349</ele>
        <time>2012-05-27T06:35:30Z</time>
      </trkpt>
      <trkpt lat="59.9709534" lon="17.7188717">
        <ele>28.4962</ele>
        <time>2012-05-27T06:35:36Z</time>
      </trkpt>
      <trkpt lat="59.9708173" lon="17.7187513">
        <ele>28.4962</ele>
        <time>2012-05-27T06:35:42Z</time>
      </trkpt>
      <trkpt lat="59.9706811" lon="17.7186407">
        <ele>29.9381</ele>
        <time>2012-05-27T06:35:48Z</time>
      </trkpt>
      <trkpt lat="59.9705355" lon="17.7185427">
        <ele>30.4188</ele>
        <time>2012-05-27T06:35:54Z</time>
      </trkpt>
      <trkpt lat="59.9704205" lon="17.7184314">
        <ele>30.4188</ele>
        <time>2012-05-27T06:35:59Z</time>
      </trkpt>
      <trkpt lat="59.970283" lon="17.7183128">
        <ele>30.4188</ele>
        <time>2012-05-27T06:36:05Z</time>
      </trkpt>
      <trkpt lat="59.9701615" lon="17.7182097">
        <ele>30.8995</ele>
        <time>2012-05-27T06:36:10Z</time>
      </trkpt>
      <trkpt lat="59.9700139" lon="17.7180806">
        <ele>31.3801</ele>
        <time>2012-05-27T06:36:16Z</time>
      </trkpt>
      <trkpt lat="59.9698966" lon="17.7179735">
        <ele>31.8607</ele>
        <time>2012-05-27T06:36:21Z</time>
      </trkpt>
      <trkpt lat="59.9697596" lon="17.7178444">
        <ele>30.8995</ele>
        <time>2012-05-27T06:36:27Z</time>
      </trkpt>
      <trkpt lat="59.9696397" lon="17.7177526">
        <ele>30.4188</ele>
        <time>2012-05-27T06:36:32Z</time>
      </trkpt>
      <trkpt lat="59.9694918" lon="17.7176695">
        <ele>29.9381</ele>
        <time>2012-05-27T06:36:38Z</time>
      </trkpt>
      <trkpt lat="59.9693763" lon="17.7175798">
        <ele>29.9381</ele>
        <time>2012-05-27T06:36:43Z</time>
      </trkpt>
      <trkpt lat="59.9692892" lon="17.7175196">
        <ele>28.4962</ele>
        <time>2012-05-27T06:36:47Z</time>
      </trkpt>
      <trkpt lat="59.9692134" lon="17.7174648">
        <ele>29.4575</ele>
        <time>2012-05-27T06:36:50Z</time>
      </trkpt>
      <trkpt lat="59.9690504" lon="17.7174196">
        <ele>28.9769</ele>
        <time>2012-05-27T06:36:56Z</time>
      </trkpt>
      <trkpt lat="59.9689189" lon="17.7173782">
        <ele>29.4575</ele>
        <time>2012-05-27T06:37:01Z</time>
      </trkpt>
      <trkpt lat="59.9688924" lon="17.7173753">
        <ele>29.4575</ele>
        <time>2012-05-27T06:37:02Z</time>
      </trkpt>
      <trkpt lat="59.9688525" lon="17.7174537">
        <ele>28.4962</ele>
        <time>2012-05-27T06:37:05Z</time>
      </trkpt>
      <trkpt lat="59.968867" lon="17.7174776">
        <ele>28.4962</ele>
        <time>2012-05-27T06:37:06Z</time>
      </trkpt>
      <trkpt lat="59.9689407" lon="17.7174086">
        <ele>28.9769</ele>
        <time>2012-05-27T06:37:09Z</time>
      </trkpt>
      <trkpt lat="59.968993" lon="17.717349">
        <ele>28.9769</ele>
        <time>2012-05-27T06:37:11Z</time>
      </trkpt>
      <trkpt lat="59.9691486" lon="17.7173295">
        <ele>29.4575</ele>
        <time>2012-05-27T06:37:17Z</time>
      </trkpt>
      <trkpt lat="59.9693327" lon="17.7173936">
        <ele>31.8607</ele>
        <time>2012-05-27T06:37:24Z</time>
      </trkpt>
      <trkpt lat="59.9694834" lon="17.7174464">
        <ele>32.8223</ele>
        <time>2012-05-27T06:37:30Z</time>
      </trkpt>
      <trkpt lat="59.9696552" lon="17.7175438">
        <ele>34.2642</ele>
        <time>2012-05-27T06:37:37Z</time>
      </trkpt>
      <trkpt lat="59.969794" lon="17.7176564">
        <ele>32.8223</ele>
        <time>2012-05-27T06:37:43Z</time>
      </trkpt>
      <trkpt lat="59.9699367" lon="17.7177614">
        <ele>33.3029</ele>
        <time>2012-05-27T06:37:49Z</time>
      </trkpt>
      <trkpt lat="59.9700797" lon="17.717889">
        <ele>31.8607</ele>
        <time>2012-05-27T06:37:55Z</time>
      </trkpt>
      <trkpt lat="59.9701858" lon="17.7179899">
        <ele>31.8607</ele>
        <time>2012-05-27T06:38:00Z</time>
      </trkpt>
      <trkpt lat="59.9702894" lon="17.7180882">
        <ele>31.8607</ele>
        <time>2012-05-27T06:38:05Z</time>
      </trkpt>
      <trkpt lat="59.9704429" lon="17.7182335">
        <ele>31.3801</ele>
        <time>2012-05-27T06:38:12Z</time>
      </trkpt>
      <trkpt lat="59.9705706" lon="17.7183583">
        <ele>31.3801</ele>
        <time>2012-05-27T06:38:18Z</time>
      </trkpt>
      <trkpt lat="59.9707257" lon="17.718498">
        <ele>31.8607</ele>
        <time>2012-05-27T06:38:25Z</time>
      </trkpt>
      <trkpt lat="59.9708354" lon="17.7186122">
        <ele>31.3801</ele>
        <time>2012-05-27T06:38:30Z</time>
      </trkpt>
      <trkpt lat="59.9709845" lon="17.7187586">
        <ele>31.3801</ele>
        <time>2012-05-27T06:38:37Z</time>
      </trkpt>
      <trkpt lat="59.9710873" lon="17.7188518">
        <ele>31.3801</ele>
        <time>2012-05-27T06:38:42Z</time>
      </trkpt>
      <trkpt lat="59.9712406" lon="17.7189877">
        <ele>31.3801</ele>
        <time>2012-05-27T06:38:49Z</time>
      </trkpt>
      <trkpt lat="59.9713752" lon="17.7191131">
        <ele>31.8607</ele>
        <time>2012-05-27T06:38:55Z</time>
      </trkpt>
      <trkpt lat="59.9715024" lon="17.7192343">
        <ele>31.3801</ele>
        <time>2012-05-27T06:39:01Z</time>
      </trkpt>
      <trkpt lat="59.9716285" lon="17.7193596">
        <ele>29.9381</ele>
        <time>2012-05-27T06:39:07Z</time>
      </trkpt>
      <trkpt lat="59.9717642" lon="17.7194834">
        <ele>28.4962</ele>
        <time>2012-05-27T06:39:13Z</time>
      </trkpt>
      <trkpt lat="59.9719186" lon="17.7196227">
        <ele>28.0155</ele>
        <time>2012-05-27T06:39:20Z</time>
      </trkpt>
      <trkpt lat="59.9720507" lon="17.7197407">
        <ele>26.5736</ele>
        <time>2012-05-27T06:39:26Z</time>
      </trkpt>
      <trkpt lat="59.9721838" lon="17.7198714">
        <ele>25.6123</ele>
        <time>2012-05-27T06:39:32Z</time>
      </trkpt>
      <trkpt lat="59.9723145" lon="17.7199927">
        <ele>23.6896</ele>
        <time>2012-05-27T06:39:38Z</time>
      </trkpt>
      <trkpt lat="59.9724376" lon="17.7201142">
        <ele>21.767</ele>
        <time>2012-05-27T06:39:44Z</time>
      </trkpt>
      <trkpt lat="59.9725403" lon="17.7202128">
        <ele>19.8444</ele>
        <time>2012-05-27T06:39:49Z</time>
      </trkpt>
      <trkpt lat="59.9726988" lon="17.720365">
        <ele>19.3638</ele>
        <time>2012-05-27T06:39:56Z</time>
      </trkpt>
      <trkpt lat="59.9728147" lon="17.720484">
        <ele>19.3638</ele>
        <time>2012-05-27T06:40:01Z</time>
      </trkpt>
      <trkpt lat="59.9729432" lon="17.7206477">
        <ele>18.4023</ele>
        <time>2012-05-27T06:40:07Z</time>
      </trkpt>
      <trkpt lat="59.9730539" lon="17.7207882">
        <ele>18.4023</ele>
        <time>2012-05-27T06:40:12Z</time>
      </trkpt>
      <trkpt lat="59.9731695" lon="17.7209686">
        <ele>17.9218</ele>
        <time>2012-05-27T06:40:18Z</time>
      </trkpt>
      <trkpt lat="59.9732824" lon="17.7211697">
        <ele>17.4412</ele>
        <time>2012-05-27T06:40:24Z</time>
      </trkpt>
      <trkpt lat="59.9733877" lon="17.7213794">
        <ele>16.4797</ele>
        <time>2012-05-27T06:40:30Z</time>
      </trkpt>
      <trkpt lat="59.9734953" lon="17.7215967">
        <ele>16.4797</ele>
        <time>2012-05-27T06:40:36Z</time>
      </trkpt>
      <trkpt lat="59.973572" lon="17.7217783">
        <ele>15.999</ele>
        <time>2012-05-27T06:40:41Z</time>
      </trkpt>
      <trkpt lat="59.9736715" lon="17.7220464">
        <ele>15.999</ele>
        <time>2012-05-27T06:40:48Z</time>
      </trkpt>
      <trkpt lat="59.9737796" lon="17.7223734">
        <ele>15.999</ele>
        <time>2012-05-27T06:40:56Z</time>
      </trkpt>
      <trkpt lat="59.9738543" lon="17.722606">
        <ele>16.4797</ele>
        <time>2012-05-27T06:41:02Z</time>
      </trkpt>
      <trkpt lat="59.9739136" lon="17.7228447">
        <ele>16.4797</ele>
        <time>2012-05-27T06:41:08Z</time>
      </trkpt>
      <trkpt lat="59.9739813" lon="17.7231342">
        <ele>17.4412</ele>
        <time>2012-05-27T06:41:15Z</time>
      </trkpt>
      <trkpt lat="59.97404" lon="17.723403">
        <ele>18.8831</ele>
        <time>2012-05-27T06:41:21Z</time>
      </trkpt>
      <trkpt lat="59.9740889" lon="17.7236664">
        <ele>19.8444</ele>
        <time>2012-05-27T06:41:27Z</time>
      </trkpt>
      <trkpt lat="59.9741399" lon="17.7240341">
        <ele>22.2476</ele>
        <time>2012-05-27T06:41:35Z</time>
      </trkpt>
      <trkpt lat="59.9741857" lon="17.7243042">
        <ele>23.209</ele>
        <time>2012-05-27T06:41:41Z</time>
      </trkpt>
      <trkpt lat="59.9742415" lon="17.7246392">
        <ele>24.651</ele>
        <time>2012-05-27T06:41:48Z</time>
      </trkpt>
      <trkpt lat="59.9742859" lon="17.7249143">
        <ele>26.0929</ele>
        <time>2012-05-27T06:41:54Z</time>
      </trkpt>
      <trkpt lat="59.9743181" lon="17.7251485">
        <ele>26.0929</ele>
        <time>2012-05-27T06:41:59Z</time>
      </trkpt>
      <trkpt lat="59.9743594" lon="17.7254493">
        <ele>27.5349</ele>
        <time>2012-05-27T06:42:06Z</time>
      </trkpt>
      <trkpt lat="59.974373" lon="17.7256696">
        <ele>25.1317</ele>
        <time>2012-05-27T06:42:11Z</time>
      </trkpt>
      <trkpt lat="59.9743706" lon="17.7257059">
        <ele>25.1317</ele>
        <time>2012-05-27T06:42:12Z</time>
      </trkpt>
      <trkpt lat="59.974382" lon="17.7260226">
        <ele>22.7283</ele>
        <time>2012-05-27T06:42:19Z</time>
      </trkpt>
      <trkpt lat="59.9743795" lon="17.7262412">
        <ele>23.209</ele>
        <time>2012-05-27T06:42:24Z</time>
      </trkpt>
      <trkpt lat="59.9743917" lon="17.7265365">
        <ele>23.209</ele>
        <time>2012-05-27T06:42:31Z</time>
      </trkpt>
      <trkpt lat="59.9744085" lon="17.7268941">
        <ele>24.1703</ele>
        <time>2012-05-27T06:42:38Z</time>
      </trkpt>
      <trkpt lat="59.9744049" lon="17.7270931">
        <ele>22.7283</ele>
        <time>2012-05-27T06:42:42Z</time>
      </trkpt>
      <trkpt lat="59.9744069" lon="17.727454">
        <ele>22.2476</ele>
        <time>2012-05-27T06:42:49Z</time>
      </trkpt>
      <trkpt lat="59.9744133" lon="17.7277922">
        <ele>20.325</ele>
        <time>2012-05-27T06:42:55Z</time>
      </trkpt>
      <trkpt lat="59.9744087" lon="17.7280191">
        <ele>20.325</ele>
        <time>2012-05-27T06:42:59Z</time>
      </trkpt>
      <trkpt lat="59.9744127" lon="17.7280758">
        <ele>20.8057</ele>
        <time>2012-05-27T06:43:00Z</time>
      </trkpt>
      <trkpt lat="59.9744349" lon="17.7283001">
        <ele>21.767</ele>
        <time>2012-05-27T06:43:04Z</time>
      </trkpt>
      <trkpt lat="59.9744486" lon="17.7285741">
        <ele>23.6896</ele>
        <time>2012-05-27T06:43:09Z</time>
      </trkpt>
      <trkpt lat="59.9744723" lon="17.7287815">
        <ele>24.1703</ele>
        <time>2012-05-27T06:43:13Z</time>
      </trkpt>
      <trkpt lat="59.9744812" lon="17.7291257">
        <ele>27.5349</ele>
        <time>2012-05-27T06:43:20Z</time>
      </trkpt>
      <trkpt lat="59.9744856" lon="17.7291784">
        <ele>27.5349</ele>
        <time>2012-05-27T06:43:21Z</time>
      </trkpt>
      <trkpt lat="59.9745086" lon="17.7294447">
        <ele>29.9381</ele>
        <time>2012-05-27T06:43:26Z</time>
      </trkpt>
      <trkpt lat="59.9745093" lon="17.7295728">
        <ele>31.3801</ele>
        <time>2012-05-27T06:43:29Z</time>
      </trkpt>
      <trkpt lat="59.9745061" lon="17.7298652">
        <ele>34.2642</ele>
        <time>2012-05-27T06:43:35Z</time>
      </trkpt>
      <trkpt lat="59.9745117" lon="17.7299118">
        <ele>34.7449</ele>
        <time>2012-05-27T06:43:36Z</time>
      </trkpt>
      <trkpt lat="59.9744739" lon="17.7303">
        <ele>36.6675</ele>
        <time>2012-05-27T06:43:44Z</time>
      </trkpt>
      <trkpt lat="59.9744651" lon="17.7305367">
        <ele>36.1868</ele>
        <time>2012-05-27T06:43:49Z</time>
      </trkpt>
      <trkpt lat="59.974449" lon="17.7308051">
        <ele>39.0707</ele>
        <time>2012-05-27T06:43:55Z</time>
      </trkpt>
      <trkpt lat="59.9744304" lon="17.7310751">
        <ele>40.5128</ele>
        <time>2012-05-27T06:44:01Z</time>
      </trkpt>
      <trkpt lat="59.9744278" lon="17.7313698">
        <ele>41.474</ele>
        <time>2012-05-27T06:44:07Z</time>
      </trkpt>
      <trkpt lat="59.9744287" lon="17.7316234">
        <ele>41.9547</ele>
        <time>2012-05-27T06:44:12Z</time>
      </trkpt>
      <trkpt lat="59.9744426" lon="17.7318819">
        <ele>42.916</ele>
        <time>2012-05-27T06:44:17Z</time>
      </trkpt>
      <trkpt lat="59.9744578" lon="17.7321168">
        <ele>44.8386</ele>
        <time>2012-05-27T06:44:22Z</time>
      </trkpt>
      <trkpt lat="59.9744831" lon="17.7324621">
        <ele>47.2418</ele>
        <time>2012-05-27T06:44:29Z</time>
      </trkpt>
      <trkpt lat="59.9744936" lon="17.7327289">
        <ele>49.6453</ele>
        <time>2012-05-27T06:44:35Z</time>
      </trkpt>
      <trkpt lat="59.974502" lon="17.7328755">
        <ele>51.5679</ele>
        <time>2012-05-27T06:44:38Z</time>
      </trkpt>
      <trkpt lat="59.9745086" lon="17.7331138">
        <ele>53.9712</ele>
        <time>2012-05-27T06:44:43Z</time>
      </trkpt>
      <trkpt lat="59.9745018" lon="17.7333459">
        <ele>54.9324</ele>
        <time>2012-05-27T06:44:48Z</time>
      </trkpt>
      <trkpt lat="59.9744776" lon="17.733595">
        <ele>54.4518</ele>
        <time>2012-05-27T06:44:53Z</time>
      </trkpt>
      <trkpt lat="59.9744755" lon="17.7338551">
        <ele>53.4905</ele>
        <time>2012-05-27T06:44:58Z</time>
      </trkpt>
      <trkpt lat="59.9744578" lon="17.7340971">
        <ele>53.0098</ele>
        <time>2012-05-27T06:45:03Z</time>
      </trkpt>
      <trkpt lat="59.9744497" lon="17.7343812">
        <ele>52.5292</ele>
        <time>2012-05-27T06:45:09Z</time>
      </trkpt>
      <trkpt lat="59.9744424" lon="17.734648">
        <ele>52.5292</ele>
        <time>2012-05-27T06:45:14Z</time>
      </trkpt>
      <trkpt lat="59.9744579" lon="17.7349358">
        <ele>51.0872</ele>
        <time>2012-05-27T06:45:20Z</time>
      </trkpt>
      <trkpt lat="59.9744836" lon="17.7351608">
        <ele>51.0872</ele>
        <time>2012-05-27T06:45:25Z</time>
      </trkpt>
      <trkpt lat="59.974508" lon="17.7354927">
        <ele>49.6453</ele>
        <time>2012-05-27T06:45:32Z</time>
      </trkpt>
      <trkpt lat="59.9745303" lon="17.7357429">
        <ele>47.7225</ele>
        <time>2012-05-27T06:45:37Z</time>
      </trkpt>
      <trkpt lat="59.974579" lon="17.7361032">
        <ele>43.3966</ele>
        <time>2012-05-27T06:45:45Z</time>
      </trkpt>
      <trkpt lat="59.9746505" lon="17.7364063">
        <ele>42.4354</ele>
        <time>2012-05-27T06:45:52Z</time>
      </trkpt>
      <trkpt lat="59.9747175" lon="17.7366569">
        <ele>40.9934</ele>
        <time>2012-05-27T06:45:58Z</time>
      </trkpt>
      <trkpt lat="59.9747778" lon="17.7368124">
        <ele>41.474</ele>
        <time>2012-05-27T06:46:02Z</time>
      </trkpt>
      <trkpt lat="59.9748375" lon="17.7370314">
        <ele>35.7061</ele>
        <time>2012-05-27T06:46:08Z</time>
      </trkpt>
      <trkpt lat="59.9748795" lon="17.7372486">
        <ele>28.4962</ele>
        <time>2012-05-27T06:46:14Z</time>
      </trkpt>
      <trkpt lat="59.9749566" lon="17.7374376">
        <ele>26.5736</ele>
        <time>2012-05-27T06:46:19Z</time>
      </trkpt>
      <trkpt lat="59.9750514" lon="17.7376392">
        <ele>23.6896</ele>
        <time>2012-05-27T06:46:25Z</time>
      </trkpt>
      <trkpt lat="59.9751622" lon="17.7378329">
        <ele>22.7283</ele>
        <time>2012-05-27T06:46:31Z</time>
      </trkpt>
      <trkpt lat="59.9752762" lon="17.7380324">
        <ele>21.2864</ele>
        <time>2012-05-27T06:46:37Z</time>
      </trkpt>
      <trkpt lat="59.9753856" lon="17.7382302">
        <ele>19.8444</ele>
        <time>2012-05-27T06:46:43Z</time>
      </trkpt>
      <trkpt lat="59.975481" lon="17.7383886">
        <ele>17.9218</ele>
        <time>2012-05-27T06:46:48Z</time>
      </trkpt>
      <trkpt lat="59.9755883" lon="17.7385815">
        <ele>16.9604</ele>
        <time>2012-05-27T06:46:54Z</time>
      </trkpt>
      <trkpt lat="59.9756836" lon="17.7387954">
        <ele>14.0764</ele>
        <time>2012-05-27T06:47:00Z</time>
      </trkpt>
      <trkpt lat="59.975781" lon="17.7389897">
        <ele>11.6732</ele>
        <time>2012-05-27T06:47:06Z</time>
      </trkpt>
      <trkpt lat="59.9758647" lon="17.739173">
        <ele>9.2699</ele>
        <time>2012-05-27T06:47:11Z</time>
      </trkpt>
      <trkpt lat="59.9760024" lon="17.7394052">
        <ele>9.75061</ele>
        <time>2012-05-27T06:47:18Z</time>
      </trkpt>
      <trkpt lat="59.9760942" lon="17.7395855">
        <ele>10.7118</ele>
        <time>2012-05-27T06:47:23Z</time>
      </trkpt>
      <trkpt lat="59.9762174" lon="17.7397398">
        <ele>11.1925</ele>
        <time>2012-05-27T06:47:29Z</time>
      </trkpt>
      <trkpt lat="59.9763303" lon="17.7397675">
        <ele>14.557</ele>
        <time>2012-05-27T06:47:34Z</time>
      </trkpt>
      <trkpt lat="59.9764325" lon="17.7396219">
        <ele>19.3638</ele>
        <time>2012-05-27T06:47:39Z</time>
      </trkpt>
      <trkpt lat="59.9765453" lon="17.7394886">
        <ele>25.6123</ele>
        <time>2012-05-27T06:47:44Z</time>
      </trkpt>
      <trkpt lat="59.9766751" lon="17.7393756">
        <ele>30.4188</ele>
        <time>2012-05-27T06:47:50Z</time>
      </trkpt>
      <trkpt lat="59.9767904" lon="17.7393227">
        <ele>32.3416</ele>
        <time>2012-05-27T06:47:55Z</time>
      </trkpt>
      <trkpt lat="59.976926" lon="17.739266">
        <ele>32.3416</ele>
        <time>2012-05-27T06:48:01Z</time>
      </trkpt>
      <trkpt lat="59.9770651" lon="17.7391845">
        <ele>33.7834</ele>
        <time>2012-05-27T06:48:07Z</time>
      </trkpt>
      <trkpt lat="59.9772401" lon="17.7390747">
        <ele>35.2255</ele>
        <time>2012-05-27T06:48:15Z</time>
      </trkpt>
      <trkpt lat="59.9773604" lon="17.738992">
        <ele>37.6287</ele>
        <time>2012-05-27T06:48:21Z</time>
      </trkpt>
      <trkpt lat="59.9775451" lon="17.7389134">
        <ele>38.5901</ele>
        <time>2012-05-27T06:48:29Z</time>
      </trkpt>
      <trkpt lat="59.977683" lon="17.7389348">
        <ele>38.5901</ele>
        <time>2012-05-27T06:48:35Z</time>
      </trkpt>
      <trkpt lat="59.9777957" lon="17.7389678">
        <ele>40.0321</ele>
        <time>2012-05-27T06:48:40Z</time>
      </trkpt>
      <trkpt lat="59.9779646" lon="17.7390849">
        <ele>38.1094</ele>
        <time>2012-05-27T06:48:48Z</time>
      </trkpt>
      <trkpt lat="59.9780732" lon="17.7391317">
        <ele>35.7061</ele>
        <time>2012-05-27T06:48:53Z</time>
      </trkpt>
      <trkpt lat="59.9782125" lon="17.7391695">
        <ele>32.8223</ele>
        <time>2012-05-27T06:49:00Z</time>
      </trkpt>
      <trkpt lat="59.9783367" lon="17.7392119">
        <ele>28.9769</ele>
        <time>2012-05-27T06:49:06Z</time>
      </trkpt>
      <trkpt lat="59.9785009" lon="17.7392629">
        <ele>26.0929</ele>
        <time>2012-05-27T06:49:13Z</time>
      </trkpt>
      <trkpt lat="59.9787004" lon="17.7393041">
        <ele>29.4575</ele>
        <time>2012-05-27T06:49:20Z</time>
      </trkpt>
      <trkpt lat="59.9788603" lon="17.7393911">
        <ele>31.3801</ele>
        <time>2012-05-27T06:49:26Z</time>
      </trkpt>
      <trkpt lat="59.9789091" lon="17.7394596">
        <ele>31.8607</ele>
        <time>2012-05-27T06:49:28Z</time>
      </trkpt>
      <trkpt lat="59.9789293" lon="17.7395064">
        <ele>31.8607</ele>
        <time>2012-05-27T06:49:29Z</time>
      </trkpt>
    </trkseg>
  </trk>
</gpx>